createdAt,value
2018-12-03T00:02:06.159Z,26.97
2018-12-03T00:04:33.666Z,22.37
2018-12-03T00:07:01.318Z,21.87
2018-12-03T00:09:28.901Z,20.67
2018-12-03T00:11:56.455Z,25.33
2018-12-03T00:14:23.973Z,27.67
2018-12-03T00:16:51.442Z,25.03
2018-12-03T00:19:18.935Z,26.93
2018-12-03T00:21:46.414Z,27.23
2018-12-03T00:24:13.980Z,26.93
2018-12-03T00:26:41.620Z,26.03
2018-12-03T00:29:09.118Z,24.90
2018-12-03T00:31:36.687Z,25.83
2018-12-03T00:34:04.433Z,30.63
2018-12-03T00:36:32.032Z,27.40
2018-12-03T00:38:59.530Z,31.03
2018-12-03T00:41:27.080Z,26.27
2018-12-03T00:43:54.679Z,30.20
2018-12-03T00:46:22.200Z,32.17
2018-12-03T00:48:49.755Z,26.47
2018-12-03T00:51:17.241Z,28.03
2018-12-03T00:53:44.687Z,29.20
2018-12-03T00:56:12.068Z,28.10
2018-12-03T00:58:39.686Z,27.37
2018-12-03T01:01:07.189Z,27.77
2018-12-03T01:03:34.699Z,30.60
2018-12-03T01:06:02.261Z,29.97
2018-12-03T01:08:29.778Z,31.13
2018-12-03T01:10:57.266Z,29.77
2018-12-03T01:13:24.882Z,27.90
2018-12-03T01:15:52.622Z,31.50
2018-12-03T01:18:20.095Z,30.63
2018-12-03T01:20:47.628Z,25.20
2018-12-03T01:23:15.067Z,31.40
2018-12-03T01:25:42.633Z,30.70
2018-12-03T01:28:10.166Z,31.13
2018-12-03T01:30:37.727Z,30.97
2018-12-03T01:33:05.200Z,31.13
2018-12-03T01:35:32.637Z,25.03
2018-12-03T01:38:00.182Z,32.10
2018-12-03T01:40:27.654Z,28.77
2018-12-03T01:42:55.066Z,36.00
2018-12-03T01:45:22.659Z,30.70
2018-12-03T01:47:50.169Z,32.43
2018-12-03T01:50:17.708Z,28.07
2018-12-03T01:52:45.183Z,29.83
2018-12-03T01:55:12.701Z,28.30
2018-12-03T01:57:40.068Z,27.67
2018-12-03T02:00:18.329Z,33.60
2018-12-03T02:02:45.852Z,30.17
2018-12-03T02:05:13.496Z,30.33
2018-12-03T02:07:41.016Z,26.00
2018-12-03T02:10:12.587Z,30.00
2018-12-03T02:12:40.057Z,32.37
2018-12-03T02:15:11.401Z,30.53
2018-12-03T02:17:38.970Z,30.50
2018-12-03T02:20:10.878Z,28.43
2018-12-03T02:22:38.382Z,38.10
2018-12-03T02:25:06.834Z,34.13
2018-12-03T02:27:34.438Z,34.77
2018-12-03T02:30:01.946Z,34.87
2018-12-03T02:32:29.425Z,35.80
2018-12-03T02:34:56.972Z,37.30
2018-12-03T02:37:24.530Z,35.47
2018-12-03T02:39:52.074Z,29.57
2018-12-03T02:42:19.543Z,35.67
2018-12-03T02:44:46.998Z,31.80
2018-12-03T02:47:14.498Z,35.10
2018-12-03T02:55:28.043Z,32.93
2018-12-03T02:57:56.828Z,38.43
2018-12-03T03:00:26.175Z,36.23
2018-12-03T03:02:55.306Z,41.20
2018-12-03T03:05:24.204Z,36.20
2018-12-03T03:07:54.044Z,31.17
2018-12-03T03:10:23.096Z,35.70
2018-12-03T03:12:52.293Z,33.17
2018-12-03T03:15:21.425Z,34.77
2018-12-03T03:17:50.495Z,37.57
2018-12-03T03:20:19.614Z,31.27
2018-12-03T03:22:48.415Z,34.53
2018-12-03T03:25:17.392Z,37.30
2018-12-03T03:27:46.588Z,39.70
2018-12-03T03:30:16.304Z,37.97
2018-12-03T03:32:45.718Z,38.17
2018-12-03T03:35:15.359Z,36.40
2018-12-03T03:37:44.332Z,38.63
2018-12-03T03:40:14.518Z,38.50
2018-12-03T03:42:44.766Z,37.30
2018-12-03T03:45:18.755Z,39.40
2018-12-03T03:47:47.851Z,36.70
2018-12-03T03:50:17.022Z,43.27
2018-12-03T03:52:45.794Z,41.57
2018-12-03T03:55:15.314Z,34.73
2018-12-03T03:57:44.375Z,40.07
2018-12-03T04:00:14.184Z,38.83
2018-12-03T04:02:43.750Z,35.20
2018-12-03T04:05:13.917Z,47.00
2018-12-03T04:07:46.636Z,35.57
2018-12-03T04:10:16.413Z,32.87
2018-12-03T04:12:46.078Z,34.67
2018-12-03T04:15:16.122Z,33.13
2018-12-03T04:17:45.375Z,34.23
2018-12-03T04:20:18.448Z,37.10
2018-12-03T04:22:52.005Z,33.33
2018-12-03T04:25:20.832Z,33.80
2018-12-03T04:27:49.517Z,35.83
2018-12-03T04:30:20.041Z,34.57
2018-12-03T04:32:49.214Z,35.50
2018-12-03T04:35:18.442Z,36.60
2018-12-03T04:37:47.807Z,33.13
2018-12-03T04:40:17.799Z,35.63
2018-12-03T04:42:46.739Z,32.83
2018-12-03T04:45:18.955Z,34.57
2018-12-03T04:47:49.158Z,35.10
2018-12-03T04:50:21.990Z,33.63
2018-12-03T04:52:50.759Z,33.27
2018-12-03T04:55:20.826Z,33.70
2018-12-03T04:57:50.317Z,32.53
2018-12-03T05:00:20.957Z,32.27
2018-12-03T05:02:50.852Z,27.10
2018-12-03T05:05:19.842Z,27.70
2018-12-03T05:07:48.762Z,29.73
2018-12-03T05:10:21.450Z,29.27
2018-12-03T05:12:52.095Z,29.43
2018-12-03T05:15:21.004Z,30.43
2018-12-03T05:17:50.132Z,27.27
2018-12-03T05:20:23.500Z,29.10
2018-12-03T05:22:53.082Z,26.50
2018-12-03T05:25:22.185Z,29.43
2018-12-03T05:27:51.413Z,26.90
2018-12-03T05:30:20.453Z,27.33
2018-12-03T05:32:50.233Z,30.37
2018-12-03T05:35:24.221Z,28.30
2018-12-03T05:37:53.435Z,28.60
2018-12-03T05:40:24.324Z,30.83
2018-12-03T05:42:53.818Z,29.60
2018-12-03T05:45:23.312Z,29.37
2018-12-03T05:47:52.740Z,28.40
2018-12-03T05:50:22.062Z,30.10
2018-12-03T05:52:51.153Z,34.40
2018-12-03T05:55:20.348Z,26.77
2018-12-03T05:57:49.396Z,30.13
2018-12-03T06:00:23.304Z,30.20
2018-12-03T06:02:52.644Z,27.80
2018-12-03T06:05:21.989Z,29.83
2018-12-03T06:07:51.075Z,28.80
2018-12-03T06:15:50.454Z,26.10
2018-12-03T06:21:07.185Z,34.30
2018-12-03T06:23:37.861Z,28.53
2018-12-03T06:26:14.367Z,25.57
2018-12-03T06:34:21.812Z,16.67
2018-12-03T06:39:38.396Z,12.87
2018-12-03T09:25:18.216Z,17.13
2018-12-03T09:27:53.507Z,18.20
2018-12-03T09:30:27.695Z,16.90
2018-12-03T09:32:54.123Z,17.30
2018-12-03T09:35:23.350Z,16.57
2018-12-03T09:37:52.276Z,16.40
2018-12-03T09:40:23.397Z,17.30
2018-12-03T09:42:54.468Z,17.40
2018-12-03T09:45:24.737Z,19.07
2018-12-03T09:47:54.404Z,24.37
2018-12-03T09:50:25.245Z,19.83
2018-12-03T09:52:54.880Z,19.17
2018-12-03T09:55:28.855Z,15.03
2018-12-03T09:58:18.501Z,17.50
2018-12-03T10:00:47.914Z,19.90
2018-12-03T10:03:25.165Z,27.03
2018-12-03T10:06:02.493Z,21.40
2018-12-03T10:08:32.452Z,21.33
2018-12-03T10:11:02.905Z,21.20
2018-12-03T10:13:32.919Z,18.27
2018-12-03T10:16:02.490Z,21.20
2018-12-03T10:18:31.826Z,22.07
2018-12-03T10:21:02.173Z,22.17
2018-12-03T10:23:31.967Z,22.40
2018-12-03T10:26:03.733Z,20.97
2018-12-03T10:28:33.070Z,13.00
2018-12-03T10:31:02.817Z,17.63
2018-12-03T10:33:35.300Z,20.33
2018-12-03T10:36:07.784Z,16.77
2018-12-03T10:38:38.672Z,17.83
2018-12-03T10:41:16.842Z,22.00
2018-12-03T10:43:45.959Z,19.47
2018-12-03T10:46:15.295Z,22.13
2018-12-03T10:48:44.720Z,22.63
2018-12-03T10:51:16.337Z,17.87
2018-12-03T10:53:46.083Z,18.77
2018-12-03T10:56:15.353Z,18.67
2018-12-03T10:58:46.782Z,18.83
2018-12-03T11:01:25.310Z,14.63
2018-12-03T11:04:00.252Z,21.30
2018-12-03T11:06:29.509Z,22.60
2018-12-03T11:08:58.444Z,22.50
2018-12-03T11:11:27.860Z,16.50
2018-12-03T11:14:04.940Z,21.63
2018-12-03T11:16:36.369Z,18.47
2018-12-03T11:23:06.025Z,19.63
2018-12-03T11:25:37.169Z,16.03
2018-12-03T11:28:09.262Z,23.13
2018-12-03T11:30:45.201Z,16.30
2018-12-03T11:33:23.767Z,18.57
2018-12-03T11:35:54.593Z,21.53
2018-12-03T11:39:02.647Z,20.47
2018-12-03T11:41:32.068Z,15.67
2018-12-03T11:44:01.185Z,19.53
2018-12-03T11:46:30.689Z,20.50
2018-12-03T11:49:01.085Z,16.77
2018-12-03T11:51:30.746Z,18.57
2018-12-03T11:54:00.364Z,21.97
2018-12-03T11:56:30.113Z,23.53
2018-12-03T11:59:00.027Z,22.87
2018-12-03T12:01:31.871Z,21.03
2018-12-03T12:04:01.402Z,16.30
2018-12-03T12:06:30.749Z,19.67
2018-12-03T12:09:00.009Z,22.93
2018-12-03T12:11:33.177Z,22.53
2018-12-03T12:14:03.535Z,20.20
2018-12-03T12:16:32.903Z,23.37
2018-12-03T12:19:01.982Z,21.17
2018-12-03T12:21:31.601Z,17.10
2018-12-03T12:24:00.597Z,18.93
2018-12-03T12:26:30.142Z,17.47
2018-12-03T12:28:59.775Z,21.30
2018-12-03T12:31:30.910Z,20.53
2018-12-03T12:34:01.316Z,23.87
2018-12-03T12:36:30.939Z,20.43
2018-12-03T12:39:00.190Z,24.87
2018-12-03T12:41:29.890Z,21.47
2018-12-03T12:43:59.050Z,20.77
2018-12-03T12:46:29.737Z,27.33
2018-12-03T12:48:59.421Z,20.57
2018-12-03T12:51:29.165Z,25.77
2018-12-03T12:54:11.685Z,23.00
2018-12-03T12:56:50.364Z,20.10
2018-12-03T13:34:45.658Z,22.00
2018-12-03T13:37:45.940Z,27.53
2018-12-03T13:40:16.569Z,20.17
2018-12-03T13:42:46.554Z,21.37
2018-12-03T13:45:20.747Z,21.80
2018-12-03T13:47:50.729Z,23.67
2018-12-03T13:50:19.978Z,25.17
2018-12-03T13:52:50.326Z,22.97
2018-12-03T13:55:20.548Z,23.97
2018-12-03T13:57:50.611Z,25.73
2018-12-03T14:00:24.827Z,22.67
2018-12-03T14:03:11.435Z,21.03
2018-12-03T14:06:04.661Z,21.53
2018-12-03T14:08:45.065Z,26.77
2018-12-03T14:12:03.033Z,19.23
2018-12-03T14:15:17.502Z,22.73
2018-12-03T14:25:52.443Z,22.80
2018-12-03T14:28:21.974Z,24.57
2018-12-03T14:30:51.541Z,24.40
2018-12-03T14:33:20.958Z,21.63
2018-12-03T14:35:50.343Z,19.73
2018-12-03T14:38:19.544Z,26.90
2018-12-03T14:40:48.997Z,23.80
2018-12-03T14:43:18.509Z,22.60
2018-12-03T14:45:48.116Z,24.93
2018-12-03T14:48:17.257Z,24.23
2018-12-03T14:50:46.862Z,24.53
2018-12-03T14:53:22.934Z,24.77
2018-12-03T14:55:53.247Z,25.30
2018-12-03T14:58:23.039Z,29.40
2018-12-03T15:00:52.364Z,30.20
2018-12-03T15:03:21.763Z,27.03
2018-12-03T15:05:50.777Z,26.97
2018-12-03T15:08:20.212Z,28.60
2018-12-03T15:10:49.552Z,23.30
2018-12-03T15:13:18.960Z,23.20
2018-12-03T15:15:48.221Z,24.30
2018-12-03T15:18:24.763Z,22.77
2018-12-03T15:20:55.599Z,25.17
2018-12-03T15:37:52.788Z,29.97
2018-12-03T15:40:21.957Z,34.23
2018-12-03T15:42:51.174Z,29.20
2018-12-03T15:45:20.170Z,31.13
2018-12-03T15:47:49.509Z,33.77
2018-12-03T15:50:20.829Z,32.57
2018-12-03T15:52:49.645Z,29.53
2018-12-03T15:55:18.871Z,40.43
2018-12-03T15:57:48.079Z,37.50
2018-12-03T16:00:17.192Z,26.10
2018-12-03T16:02:46.546Z,34.03
2018-12-03T16:05:20.228Z,30.40
2018-12-03T16:07:49.914Z,30.73
2018-12-03T16:10:18.873Z,33.43
2018-12-03T16:12:48.663Z,30.73
2018-12-03T16:15:18.056Z,38.03
2018-12-03T16:17:47.133Z,34.50
2018-12-03T16:20:16.030Z,31.33
2018-12-03T16:22:45.437Z,29.47
2018-12-03T16:25:14.383Z,39.43
2018-12-03T16:27:43.502Z,41.77
2018-12-03T16:30:20.830Z,33.60
2018-12-03T16:32:51.913Z,36.60
2018-12-03T16:35:21.188Z,31.97
2018-12-03T16:40:13.124Z,35.60
2018-12-03T16:40:52.778Z,39.87
2018-12-03T16:43:47.361Z,29.00
2018-12-03T16:46:35.079Z,30.10
2018-12-03T16:49:31.000Z,34.77
2018-12-03T16:54:39.863Z,32.30
2018-12-03T16:57:22.950Z,32.47
2018-12-03T16:59:52.383Z,30.90
2018-12-03T17:02:22.295Z,28.77
2018-12-03T17:04:52.351Z,34.37
2018-12-03T17:07:26.058Z,29.03
2018-12-03T17:09:55.770Z,27.73
2018-12-03T17:20:42.399Z,35.77
2018-12-03T17:23:57.405Z,37.20
2018-12-03T17:26:26.699Z,29.83
2018-12-03T17:28:56.199Z,36.93
2018-12-03T17:31:25.432Z,32.37
2018-12-03T17:33:56.330Z,30.07
2018-12-03T17:36:25.602Z,27.97
2018-12-03T17:38:54.629Z,33.90
2018-12-03T17:41:24.389Z,29.20
2018-12-03T17:43:53.537Z,33.90
2018-12-03T17:46:29.056Z,33.40
2018-12-03T17:49:00.378Z,31.73
2018-12-03T17:51:44.635Z,27.80
2018-12-03T17:54:20.495Z,31.00
2018-12-03T17:57:35.546Z,35.73
2018-12-03T18:00:24.872Z,30.33
2018-12-03T18:03:04.299Z,32.63
2018-12-03T18:05:39.679Z,33.93
2018-12-03T18:08:26.271Z,33.93
2018-12-03T18:11:04.552Z,32.10
2018-12-03T18:13:46.246Z,37.63
2018-12-03T18:16:25.717Z,34.70
2018-12-03T18:18:58.545Z,35.30
2018-12-03T18:21:34.213Z,31.07
2018-12-03T18:24:11.573Z,25.03
2018-12-03T18:26:48.784Z,37.90
2018-12-03T18:29:26.627Z,31.47
2018-12-03T18:32:06.682Z,34.67
2018-12-03T18:37:26.001Z,25.37
2018-12-03T18:38:00.427Z,32.07
2018-12-03T18:40:36.479Z,38.70
2018-12-03T18:43:07.395Z,33.17
2018-12-03T18:45:39.312Z,30.83
2018-12-03T18:48:11.820Z,29.53
2018-12-03T18:50:43.421Z,28.80
2018-12-03T18:53:20.174Z,41.70
2018-12-03T18:55:50.462Z,31.50
2018-12-03T18:58:41.005Z,41.17
2018-12-03T19:01:15.006Z,27.30
2018-12-03T19:03:46.784Z,31.23
2018-12-03T19:06:20.895Z,30.13
2018-12-03T19:08:53.138Z,33.30
2018-12-03T19:11:24.669Z,32.33
2018-12-03T19:14:00.345Z,26.87
2018-12-03T19:16:34.663Z,33.27
2018-12-03T19:19:04.748Z,36.20
2018-12-03T19:22:22.191Z,33.43
2018-12-03T19:24:53.766Z,29.57
2018-12-03T19:27:26.415Z,30.50
2018-12-03T19:30:10.643Z,38.23
2018-12-03T19:32:52.866Z,30.67
2018-12-03T19:35:23.790Z,39.00
2018-12-03T19:37:59.657Z,32.50
2018-12-03T19:40:27.404Z,39.87
2018-12-03T19:42:57.783Z,30.83
2018-12-03T19:45:31.805Z,38.97
2018-12-03T19:48:03.507Z,37.27
2018-12-03T19:50:35.923Z,34.50
2018-12-03T19:53:09.335Z,34.40
2018-12-03T19:55:40.243Z,36.20
2018-12-03T19:58:39.649Z,38.27
2018-12-03T20:01:09.745Z,39.77
2018-12-03T20:03:40.615Z,45.60
2018-12-03T20:06:11.672Z,36.37
2018-12-03T20:08:43.162Z,42.10
2018-12-03T20:11:17.793Z,40.83
2018-12-03T20:13:47.919Z,44.17
2018-12-03T20:16:19.595Z,38.13
2018-12-03T20:18:54.788Z,36.00
2018-12-03T20:21:26.266Z,36.63
2018-12-03T20:24:02.577Z,36.00
2018-12-03T20:26:52.382Z,39.73
2018-12-03T20:29:43.198Z,43.07
2018-12-03T20:32:49.656Z,37.70
2018-12-03T20:36:18.598Z,37.10
2018-12-03T20:39:18.740Z,34.40
2018-12-03T20:41:53.516Z,37.33
2018-12-03T20:44:30.129Z,41.07
2018-12-03T20:47:28.991Z,37.33
2018-12-03T20:50:24.192Z,38.00
2018-12-03T20:52:54.781Z,34.20
2018-12-03T20:55:31.417Z,31.37
2018-12-03T20:58:03.860Z,38.93
2018-12-03T21:00:34.641Z,32.77
2018-12-03T21:03:05.172Z,40.47
2018-12-03T21:05:35.617Z,34.67
2018-12-03T21:08:05.272Z,32.93
2018-12-03T21:10:35.665Z,26.42
2018-12-03T21:13:05.944Z,19.17
2018-12-03T21:15:48.850Z,16.63
2018-12-03T21:18:10.951Z,17.10
2018-12-03T21:20:48.695Z,12.93
2018-12-03T21:23:18.049Z,16.07
2018-12-03T21:25:47.680Z,12.57
2018-12-03T21:28:17.675Z,9.93
2018-12-03T21:30:47.023Z,10.00
2018-12-03T21:33:17.685Z,12.33
2018-12-03T21:35:48.593Z,12.77
2018-12-03T21:38:17.747Z,12.63
2018-12-03T21:40:46.445Z,10.90
2018-12-03T21:43:15.868Z,11.77
2018-12-03T21:45:44.939Z,13.67
2018-12-03T21:48:14.156Z,8.57
2018-12-03T21:50:43.085Z,7.97
2018-12-03T21:53:12.276Z,11.43
2018-12-03T21:55:41.101Z,10.00
2018-12-03T21:58:10.220Z,10.93
2018-12-03T22:00:39.282Z,7.80
2018-12-03T22:03:08.400Z,11.77
2018-12-03T22:05:37.998Z,9.30
2018-12-03T22:08:07.719Z,5.43
2018-12-03T22:10:36.969Z,8.63
2018-12-03T22:13:06.250Z,6.20
2018-12-03T22:15:35.621Z,9.57
2018-12-03T22:18:04.550Z,6.23
2018-12-03T22:20:33.987Z,12.13
2018-12-03T22:23:03.410Z,6.83
2018-12-03T22:25:32.544Z,11.13
2018-12-03T22:28:01.662Z,10.73
2018-12-03T22:30:30.988Z,10.73
2018-12-03T22:33:00.463Z,9.77
2018-12-03T22:35:29.954Z,12.93
2018-12-03T22:37:58.924Z,8.80
2018-12-03T22:40:28.386Z,12.50
2018-12-03T22:42:57.471Z,5.47
2018-12-03T22:45:26.897Z,6.97
2018-12-03T22:47:56.399Z,6.33
2018-12-03T22:50:26.530Z,6.70
2018-12-03T22:52:56.137Z,9.90
2018-12-03T22:55:25.506Z,9.37
2018-12-03T22:57:58.227Z,13.27
2018-12-03T23:00:39.479Z,10.83
2018-12-03T23:03:08.543Z,10.07
2018-12-03T23:05:37.549Z,14.43
2018-12-03T23:08:06.771Z,9.10
2018-12-03T23:10:36.103Z,9.90
2018-12-03T23:13:05.438Z,10.80
2018-12-03T23:15:34.990Z,10.87
2018-12-03T23:18:04.180Z,9.67
2018-12-03T23:20:33.544Z,13.17
2018-12-03T23:23:03.002Z,12.03
2018-12-03T23:25:31.746Z,10.67
2018-12-03T23:28:01.081Z,10.77
2018-12-03T23:30:30.175Z,13.33
2018-12-03T23:33:00.020Z,13.33
2018-12-03T23:35:29.252Z,9.97
2018-12-03T23:37:58.804Z,8.20
2018-12-03T23:40:27.932Z,12.43
2018-12-03T23:42:57.594Z,14.27
2018-12-03T23:45:27.380Z,15.27
2018-12-03T23:47:56.681Z,12.17
2018-12-03T23:50:25.863Z,16.80
2018-12-03T23:52:54.866Z,13.63
2018-12-03T23:55:23.942Z,13.67
2018-12-03T23:57:53.145Z,13.67
